sensor_id;sensor_type;location;lat;lon;timestamp;temperature;humidity
21487;DHT22;10905;50.822;4.336;2023-03-14T00:00:38;12.40;99.90
21487;DHT22;10905;50.822;4.336;2023-03-14T00:03:03;12.40;99.90
21487;DHT22;10905;50.822;4.336;2023-03-14T00:05:29;12.30;99.90
21487;DHT22;10905;50.822;4.336;2023-03-14T00:07:55;12.20;99.90
21487;DHT22;10905;50.822;4.336;2023-03-14T00:10:20;12.10;99.90
21487;DHT22;10905;50.822;4.336;2023-03-14T00:12:46;12.10;99.90
21487;DHT22;10905;50.822;4.336;2023-03-14T00:15:12;12.00;99.90
21487;DHT22;10905;50.822;4.336;2023-03-14T00:17:38;12.10;99.90
21487;DHT22;10905;50.822;4.336;2023-03-14T00:20:06;12.00;99.90
21487;DHT22;10905;50.822;4.336;2023-03-14T00:22:35;12.00;99.90
21487;DHT22;10905;50.822;4.336;2023-03-14T00:25:01;11.90;99.90
21487;DHT22;10905;50.822;4.336;2023-03-14T00:27:27;11.90;99.90
21487;DHT22;10905;50.822;4.336;2023-03-14T00:29:53;11.80;99.90
21487;DHT22;10905;50.822;4.336;2023-03-14T00:32:18;11.80;99.90
21487;DHT22;10905;50.822;4.336;2023-03-14T00:34:44;11.80;99.90
21487;DHT22;10905;50.822;4.336;2023-03-14T00:37:10;11.80;99.90
21487;DHT22;10905;50.822;4.336;2023-03-14T00:39:35;11.80;99.90
21487;DHT22;10905;50.822;4.336;2023-03-14T00:42:01;11.90;99.90
21487;DHT22;10905;50.822;4.336;2023-03-14T00:44:26;12.00;99.90
21487;DHT22;10905;50.822;4.336;2023-03-14T00:46:52;12.00;99.90
21487;DHT22;10905;50.822;4.336;2023-03-14T00:49:18;12.00;99.90
21487;DHT22;10905;50.822;4.336;2023-03-14T00:51:43;12.00;99.90
21487;DHT22;10905;50.822;4.336;2023-03-14T00:54:09;12.10;99.90
21487;DHT22;10905;50.822;4.336;2023-03-14T00:56:35;12.10;99.90
21487;DHT22;10905;50.822;4.336;2023-03-14T00:59:00;12.00;99.90
21487;DHT22;10905;50.822;4.336;2023-03-14T01:01:26;11.90;99.90
21487;DHT22;10905;50.822;4.336;2023-03-14T01:03:53;11.90;99.90
21487;DHT22;10905;50.822;4.336;2023-03-14T01:06:25;12.00;99.90
21487;DHT22;10905;50.822;4.336;2023-03-14T01:08:51;12.00;99.90
21487;DHT22;10905;50.822;4.336;2023-03-14T01:11:23;11.90;99.90
21487;DHT22;10905;50.822;4.336;2023-03-14T01:13:49;12.00;99.90
21487;DHT22;10905;50.822;4.336;2023-03-14T01:16:16;11.90;99.90
21487;DHT22;10905;50.822;4.336;2023-03-14T01:18:43;12.00;99.90
21487;DHT22;10905;50.822;4.336;2023-03-14T01:21:15;12.00;99.90
21487;DHT22;10905;50.822;4.336;2023-03-14T01:23:42;12.00;99.90
21487;DHT22;10905;50.822;4.336;2023-03-14T01:26:09;12.00;99.90
21487;DHT22;10905;50.822;4.336;2023-03-14T01:28:35;11.90;99.90
21487;DHT22;10905;50.822;4.336;2023-03-14T01:31:06;11.90;99.90
21487;DHT22;10905;50.822;4.336;2023-03-14T01:33:32;11.90;99.90
21487;DHT22;10905;50.822;4.336;2023-03-14T01:35:58;11.90;99.90
21487;DHT22;10905;50.822;4.336;2023-03-14T01:38:24;11.80;99.90
21487;DHT22;10905;50.822;4.336;2023-03-14T01:40:49;11.70;99.90
21487;DHT22;10905;50.822;4.336;2023-03-14T01:43:18;11.60;99.90
21487;DHT22;10905;50.822;4.336;2023-03-14T01:51:41;11.60;99.90
21487;DHT22;10905;50.822;4.336;2023-03-14T01:56:44;11.50;99.90
21487;DHT22;10905;50.822;4.336;2023-03-14T01:59:11;11.40;99.90
21487;DHT22;10905;50.822;4.336;2023-03-14T02:01:38;11.30;99.90
21487;DHT22;10905;50.822;4.336;2023-03-14T02:04:07;11.20;99.90
21487;DHT22;10905;50.822;4.336;2023-03-14T02:07:00;11.30;99.90
21487;DHT22;10905;50.822;4.336;2023-03-14T02:09:28;11.20;99.90
21487;DHT22;10905;50.822;4.336;2023-03-14T02:11:55;11.10;99.90
21487;DHT22;10905;50.822;4.336;2023-03-14T02:14:35;11.10;99.90
21487;DHT22;10905;50.822;4.336;2023-03-14T02:17:03;10.90;99.90
21487;DHT22;10905;50.822;4.336;2023-03-14T02:22:15;11.00;99.90
21487;DHT22;10905;50.822;4.336;2023-03-14T02:25:08;11.00;99.90
21487;DHT22;10905;50.822;4.336;2023-03-14T02:27:36;10.90;99.90
21487;DHT22;10905;50.822;4.336;2023-03-14T02:30:13;10.90;99.90
21487;DHT22;10905;50.822;4.336;2023-03-14T02:32:43;10.90;99.90
21487;DHT22;10905;50.822;4.336;2023-03-14T02:35:11;11.00;99.90
21487;DHT22;10905;50.822;4.336;2023-03-14T02:40:41;10.80;99.90
21487;DHT22;10905;50.822;4.336;2023-03-14T02:43:07;10.80;99.90
21487;DHT22;10905;50.822;4.336;2023-03-14T02:45:43;10.80;99.90
21487;DHT22;10905;50.822;4.336;2023-03-14T02:48:20;10.80;99.90
21487;DHT22;10905;50.822;4.336;2023-03-14T02:50:48;10.80;99.90
21487;DHT22;10905;50.822;4.336;2023-03-14T02:53:19;10.90;99.90
21487;DHT22;10905;50.822;4.336;2023-03-14T02:55:47;11.00;99.90
21487;DHT22;10905;50.822;4.336;2023-03-14T02:58:13;11.00;99.90
21487;DHT22;10905;50.822;4.336;2023-03-14T03:00:39;11.00;99.90
21487;DHT22;10905;50.822;4.336;2023-03-14T03:03:04;11.00;99.90
21487;DHT22;10905;50.822;4.336;2023-03-14T03:05:31;11.00;99.90
21487;DHT22;10905;50.822;4.336;2023-03-14T03:07:57;10.90;99.90
21487;DHT22;10905;50.822;4.336;2023-03-14T03:10:23;11.00;99.90
21487;DHT22;10905;50.822;4.336;2023-03-14T03:12:49;10.90;99.90
21487;DHT22;10905;50.822;4.336;2023-03-14T03:15:14;10.90;99.90
21487;DHT22;10905;50.822;4.336;2023-03-14T03:17:40;11.00;99.90
21487;DHT22;10905;50.822;4.336;2023-03-14T03:20:06;11.00;99.90
21487;DHT22;10905;50.822;4.336;2023-03-14T03:22:38;11.00;99.90
21487;DHT22;10905;50.822;4.336;2023-03-14T03:25:05;11.00;99.90
21487;DHT22;10905;50.822;4.336;2023-03-14T03:27:32;11.00;99.90
21487;DHT22;10905;50.822;4.336;2023-03-14T03:29:59;11.00;99.90
21487;DHT22;10905;50.822;4.336;2023-03-14T03:32:24;11.10;99.90
21487;DHT22;10905;50.822;4.336;2023-03-14T03:34:50;11.10;99.90
21487;DHT22;10905;50.822;4.336;2023-03-14T03:37:16;11.10;99.90
21487;DHT22;10905;50.822;4.336;2023-03-14T03:39:41;11.10;99.90
21487;DHT22;10905;50.822;4.336;2023-03-14T03:42:07;11.10;99.90
21487;DHT22;10905;50.822;4.336;2023-03-14T03:44:33;11.10;99.90
21487;DHT22;10905;50.822;4.336;2023-03-14T03:46:58;11.10;99.90
21487;DHT22;10905;50.822;4.336;2023-03-14T03:49:24;11.10;99.90
21487;DHT22;10905;50.822;4.336;2023-03-14T03:51:53;11.30;99.90
21487;DHT22;10905;50.822;4.336;2023-03-14T03:54:19;11.20;99.90
21487;DHT22;10905;50.822;4.336;2023-03-14T03:56:44;11.20;99.90
21487;DHT22;10905;50.822;4.336;2023-03-14T03:59:10;11.20;99.90
21487;DHT22;10905;50.822;4.336;2023-03-14T04:01:35;11.20;99.90
21487;DHT22;10905;50.822;4.336;2023-03-14T04:04:01;11.10;99.90
21487;DHT22;10905;50.822;4.336;2023-03-14T04:06:26;11.10;99.90
21487;DHT22;10905;50.822;4.336;2023-03-14T04:08:53;11.20;99.90
21487;DHT22;10905;50.822;4.336;2023-03-14T04:11:19;11.20;99.90
21487;DHT22;10905;50.822;4.336;2023-03-14T04:13:44;11.20;99.90
21487;DHT22;10905;50.822;4.336;2023-03-14T04:16:22;11.20;99.90
21487;DHT22;10905;50.822;4.336;2023-03-14T04:18:48;11.20;99.90
21487;DHT22;10905;50.822;4.336;2023-03-14T04:21:13;11.30;99.90
21487;DHT22;10905;50.822;4.336;2023-03-14T04:23:39;11.40;99.90
21487;DHT22;10905;50.822;4.336;2023-03-14T04:26:05;11.30;99.90
21487;DHT22;10905;50.822;4.336;2023-03-14T04:28:30;11.30;99.90
21487;DHT22;10905;50.822;4.336;2023-03-14T04:30:56;11.30;99.90
21487;DHT22;10905;50.822;4.336;2023-03-14T04:33:22;11.30;99.90
21487;DHT22;10905;50.822;4.336;2023-03-14T04:35:47;11.30;99.90
21487;DHT22;10905;50.822;4.336;2023-03-14T04:38:15;11.30;99.90
21487;DHT22;10905;50.822;4.336;2023-03-14T04:40:41;11.20;99.90
21487;DHT22;10905;50.822;4.336;2023-03-14T04:43:08;11.20;99.90
21487;DHT22;10905;50.822;4.336;2023-03-14T04:45:35;11.20;99.90
21487;DHT22;10905;50.822;4.336;2023-03-14T04:48:00;11.20;99.90
21487;DHT22;10905;50.822;4.336;2023-03-14T04:50:26;11.20;99.90
21487;DHT22;10905;50.822;4.336;2023-03-14T04:52:51;11.30;99.90
21487;DHT22;10905;50.822;4.336;2023-03-14T04:55:17;11.30;99.90
21487;DHT22;10905;50.822;4.336;2023-03-14T04:57:43;11.40;99.90
21487;DHT22;10905;50.822;4.336;2023-03-14T05:00:10;11.40;99.90
21487;DHT22;10905;50.822;4.336;2023-03-14T05:02:36;11.40;99.90
21487;DHT22;10905;50.822;4.336;2023-03-14T05:05:02;11.40;99.90
21487;DHT22;10905;50.822;4.336;2023-03-14T05:07:28;11.30;99.90
21487;DHT22;10905;50.822;4.336;2023-03-14T05:09:54;11.30;99.90
21487;DHT22;10905;50.822;4.336;2023-03-14T05:12:20;11.30;99.90
21487;DHT22;10905;50.822;4.336;2023-03-14T05:14:46;11.30;99.90
21487;DHT22;10905;50.822;4.336;2023-03-14T05:17:12;11.30;99.90
21487;DHT22;10905;50.822;4.336;2023-03-14T05:19:40;11.30;99.90
21487;DHT22;10905;50.822;4.336;2023-03-14T05:22:06;11.30;99.90
21487;DHT22;10905;50.822;4.336;2023-03-14T05:24:31;11.40;99.90
21487;DHT22;10905;50.822;4.336;2023-03-14T05:26:57;11.30;99.90
21487;DHT22;10905;50.822;4.336;2023-03-14T05:29:23;11.30;99.90
21487;DHT22;10905;50.822;4.336;2023-03-14T05:31:48;11.30;99.90
21487;DHT22;10905;50.822;4.336;2023-03-14T05:34:14;11.20;99.90
21487;DHT22;10905;50.822;4.336;2023-03-14T05:36:39;11.20;99.90
21487;DHT22;10905;50.822;4.336;2023-03-14T05:39:05;11.30;99.90
21487;DHT22;10905;50.822;4.336;2023-03-14T05:41:31;11.20;99.90
21487;DHT22;10905;50.822;4.336;2023-03-14T05:43:56;11.30;99.90
21487;DHT22;10905;50.822;4.336;2023-03-14T05:46:22;11.30;99.90
21487;DHT22;10905;50.822;4.336;2023-03-14T05:48:47;11.30;99.90
21487;DHT22;10905;50.822;4.336;2023-03-14T05:51:13;11.30;99.90
21487;DHT22;10905;50.822;4.336;2023-03-14T05:53:38;11.20;99.90
21487;DHT22;10905;50.822;4.336;2023-03-14T05:56:04;11.20;99.90
21487;DHT22;10905;50.822;4.336;2023-03-14T05:58:30;11.20;99.90
21487;DHT22;10905;50.822;4.336;2023-03-14T06:00:56;11.20;99.90
21487;DHT22;10905;50.822;4.336;2023-03-14T06:03:21;11.20;99.90
21487;DHT22;10905;50.822;4.336;2023-03-14T06:05:50;11.20;99.90
21487;DHT22;10905;50.822;4.336;2023-03-14T06:08:16;11.20;99.90
21487;DHT22;10905;50.822;4.336;2023-03-14T06:10:42;11.20;99.90
21487;DHT22;10905;50.822;4.336;2023-03-14T06:13:07;11.20;99.90
21487;DHT22;10905;50.822;4.336;2023-03-14T06:15:33;11.10;99.90
21487;DHT22;10905;50.822;4.336;2023-03-14T06:17:58;11.10;99.90
21487;DHT22;10905;50.822;4.336;2023-03-14T06:20:24;11.10;99.90
21487;DHT22;10905;50.822;4.336;2023-03-14T06:22:50;11.10;99.90
21487;DHT22;10905;50.822;4.336;2023-03-14T06:25:15;11.10;99.90
21487;DHT22;10905;50.822;4.336;2023-03-14T06:27:41;11.10;99.90
21487;DHT22;10905;50.822;4.336;2023-03-14T06:30:08;11.00;99.90
21487;DHT22;10905;50.822;4.336;2023-03-14T06:32:33;10.90;99.90
21487;DHT22;10905;50.822;4.336;2023-03-14T06:34:59;10.80;99.90
21487;DHT22;10905;50.822;4.336;2023-03-14T06:37:27;10.90;99.90
21487;DHT22;10905;50.822;4.336;2023-03-14T06:39:53;10.90;99.90
21487;DHT22;10905;50.822;4.336;2023-03-14T06:42:19;11.00;99.90
21487;DHT22;10905;50.822;4.336;2023-03-14T06:44:45;11.00;99.90
21487;DHT22;10905;50.822;4.336;2023-03-14T06:47:11;11.00;99.90
21487;DHT22;10905;50.822;4.336;2023-03-14T06:49:36;10.90;99.90
21487;DHT22;10905;50.822;4.336;2023-03-14T06:52:02;10.40;99.90
21487;DHT22;10905;50.822;4.336;2023-03-14T06:54:27;10.00;99.90
21487;DHT22;10905;50.822;4.336;2023-03-14T06:56:53;9.80;99.90
21487;DHT22;10905;50.822;4.336;2023-03-14T06:59:19;9.40;99.90
21487;DHT22;10905;50.822;4.336;2023-03-14T07:01:44;9.30;99.90
21487;DHT22;10905;50.822;4.336;2023-03-14T07:04:10;9.10;99.90
21487;DHT22;10905;50.822;4.336;2023-03-14T07:06:36;8.90;99.90
21487;DHT22;10905;50.822;4.336;2023-03-14T07:09:02;8.70;99.90
21487;DHT22;10905;50.822;4.336;2023-03-14T07:11:27;8.60;99.90
21487;DHT22;10905;50.822;4.336;2023-03-14T07:13:53;8.40;99.90
21487;DHT22;10905;50.822;4.336;2023-03-14T07:16:19;8.30;99.90
21487;DHT22;10905;50.822;4.336;2023-03-14T07:18:45;8.20;99.90
21487;DHT22;10905;50.822;4.336;2023-03-14T07:21:11;8.20;99.90
21487;DHT22;10905;50.822;4.336;2023-03-14T07:23:36;8.10;99.90
21487;DHT22;10905;50.822;4.336;2023-03-14T07:26:02;8.10;99.90
21487;DHT22;10905;50.822;4.336;2023-03-14T07:28:28;8.10;99.90
21487;DHT22;10905;50.822;4.336;2023-03-14T07:30:54;8.20;99.90
21487;DHT22;10905;50.822;4.336;2023-03-14T07:33:20;8.10;99.90
21487;DHT22;10905;50.822;4.336;2023-03-14T07:35:47;8.00;99.90
21487;DHT22;10905;50.822;4.336;2023-03-14T07:38:13;8.10;99.90
21487;DHT22;10905;50.822;4.336;2023-03-14T07:40:39;8.20;99.90
21487;DHT22;10905;50.822;4.336;2023-03-14T07:43:05;8.10;99.90
21487;DHT22;10905;50.822;4.336;2023-03-14T07:45:31;8.10;99.90
21487;DHT22;10905;50.822;4.336;2023-03-14T07:47:56;8.10;99.90
21487;DHT22;10905;50.822;4.336;2023-03-14T07:50:23;8.10;99.90
21487;DHT22;10905;50.822;4.336;2023-03-14T07:52:49;8.20;99.90
21487;DHT22;10905;50.822;4.336;2023-03-14T07:55:15;8.10;99.90
21487;DHT22;10905;50.822;4.336;2023-03-14T07:57:41;8.20;99.90
21487;DHT22;10905;50.822;4.336;2023-03-14T08:00:07;8.30;99.90
21487;DHT22;10905;50.822;4.336;2023-03-14T08:02:33;8.30;99.90
21487;DHT22;10905;50.822;4.336;2023-03-14T08:04:59;8.40;99.90
21487;DHT22;10905;50.822;4.336;2023-03-14T08:07:24;8.40;99.90
21487;DHT22;10905;50.822;4.336;2023-03-14T08:09:50;8.30;99.90
21487;DHT22;10905;50.822;4.336;2023-03-14T08:12:15;8.30;99.90
21487;DHT22;10905;50.822;4.336;2023-03-14T08:14:41;8.40;99.90
21487;DHT22;10905;50.822;4.336;2023-03-14T08:17:07;8.30;99.90
21487;DHT22;10905;50.822;4.336;2023-03-14T08:19:33;8.40;99.90
21487;DHT22;10905;50.822;4.336;2023-03-14T08:21:59;8.50;99.90
21487;DHT22;10905;50.822;4.336;2023-03-14T08:24:25;8.30;99.90
21487;DHT22;10905;50.822;4.336;2023-03-14T08:26:50;8.30;99.90
21487;DHT22;10905;50.822;4.336;2023-03-14T08:29:16;8.20;99.90
21487;DHT22;10905;50.822;4.336;2023-03-14T08:31:41;8.20;99.90
21487;DHT22;10905;50.822;4.336;2023-03-14T08:34:07;8.20;99.90
21487;DHT22;10905;50.822;4.336;2023-03-14T08:36:33;8.20;99.90
21487;DHT22;10905;50.822;4.336;2023-03-14T08:38:59;8.10;99.90
21487;DHT22;10905;50.822;4.336;2023-03-14T08:41:25;8.00;99.90
21487;DHT22;10905;50.822;4.336;2023-03-14T08:43:50;7.90;99.90
21487;DHT22;10905;50.822;4.336;2023-03-14T08:46:16;7.80;99.90
21487;DHT22;10905;50.822;4.336;2023-03-14T08:48:41;7.70;99.90
21487;DHT22;10905;50.822;4.336;2023-03-14T08:51:07;7.70;99.90
21487;DHT22;10905;50.822;4.336;2023-03-14T08:53:33;7.70;99.90
21487;DHT22;10905;50.822;4.336;2023-03-14T08:55:59;7.50;99.90
21487;DHT22;10905;50.822;4.336;2023-03-14T08:58:24;7.50;99.90
21487;DHT22;10905;50.822;4.336;2023-03-14T09:00:50;7.50;99.90
21487;DHT22;10905;50.822;4.336;2023-03-14T09:03:16;7.50;99.90
21487;DHT22;10905;50.822;4.336;2023-03-14T09:05:42;7.50;99.90
21487;DHT22;10905;50.822;4.336;2023-03-14T09:08:07;7.60;99.90
21487;DHT22;10905;50.822;4.336;2023-03-14T09:10:33;7.70;99.90
21487;DHT22;10905;50.822;4.336;2023-03-14T09:12:58;7.60;99.90
21487;DHT22;10905;50.822;4.336;2023-03-14T09:15:25;7.70;99.90
21487;DHT22;10905;50.822;4.336;2023-03-14T09:17:51;7.80;99.90
21487;DHT22;10905;50.822;4.336;2023-03-14T09:20:16;7.90;99.90
21487;DHT22;10905;50.822;4.336;2023-03-14T09:22:42;7.70;99.90
21487;DHT22;10905;50.822;4.336;2023-03-14T09:25:08;7.60;99.90
21487;DHT22;10905;50.822;4.336;2023-03-14T09:27:34;7.60;99.90
21487;DHT22;10905;50.822;4.336;2023-03-14T09:30:00;7.60;99.90
21487;DHT22;10905;50.822;4.336;2023-03-14T09:32:26;7.50;99.90
21487;DHT22;10905;50.822;4.336;2023-03-14T09:34:51;7.60;99.90
21487;DHT22;10905;50.822;4.336;2023-03-14T09:37:17;7.60;99.90
21487;DHT22;10905;50.822;4.336;2023-03-14T09:39:43;7.70;99.90
21487;DHT22;10905;50.822;4.336;2023-03-14T09:42:13;7.60;99.90
21487;DHT22;10905;50.822;4.336;2023-03-14T09:44:53;7.70;99.90
21487;DHT22;10905;50.822;4.336;2023-03-14T09:47:20;7.90;99.90
21487;DHT22;10905;50.822;4.336;2023-03-14T09:49:47;7.90;99.90
21487;DHT22;10905;50.822;4.336;2023-03-14T09:52:24;7.80;99.90
21487;DHT22;10905;50.822;4.336;2023-03-14T09:54:59;7.70;99.90
21487;DHT22;10905;50.822;4.336;2023-03-14T09:57:27;7.70;99.90
21487;DHT22;10905;50.822;4.336;2023-03-14T10:00:00;7.70;99.90
21487;DHT22;10905;50.822;4.336;2023-03-14T10:02:35;7.90;99.90
21487;DHT22;10905;50.822;4.336;2023-03-14T10:05:01;7.90;99.90
21487;DHT22;10905;50.822;4.336;2023-03-14T10:07:31;7.90;99.90
21487;DHT22;10905;50.822;4.336;2023-03-14T10:09:58;8.00;99.90
21487;DHT22;10905;50.822;4.336;2023-03-14T10:12:35;8.10;99.90
21487;DHT22;10905;50.822;4.336;2023-03-14T10:15:05;8.30;99.90
21487;DHT22;10905;50.822;4.336;2023-03-14T10:17:38;8.20;99.90
21487;DHT22;10905;50.822;4.336;2023-03-14T10:20:04;8.10;99.90
21487;DHT22;10905;50.822;4.336;2023-03-14T10:22:32;8.10;99.90
21487;DHT22;10905;50.822;4.336;2023-03-14T10:25:02;8.10;99.90
21487;DHT22;10905;50.822;4.336;2023-03-14T10:27:32;8.10;99.90
21487;DHT22;10905;50.822;4.336;2023-03-14T10:30:01;8.00;99.90
21487;DHT22;10905;50.822;4.336;2023-03-14T10:32:38;7.90;99.90
21487;DHT22;10905;50.822;4.336;2023-03-14T10:37:53;7.50;99.90
21487;DHT22;10905;50.822;4.336;2023-03-14T10:40:26;7.40;99.90
21487;DHT22;10905;50.822;4.336;2023-03-14T10:42:52;7.40;99.90
21487;DHT22;10905;50.822;4.336;2023-03-14T10:45:41;7.40;99.90
21487;DHT22;10905;50.822;4.336;2023-03-14T10:53:25;7.40;99.90
21487;DHT22;10905;50.822;4.336;2023-03-14T10:55:51;7.30;99.90
21487;DHT22;10905;50.822;4.336;2023-03-14T10:58:22;7.30;99.90
21487;DHT22;10905;50.822;4.336;2023-03-14T11:03:56;7.10;99.90
21487;DHT22;10905;50.822;4.336;2023-03-14T11:18:07;7.00;99.90
21487;DHT22;10905;50.822;4.336;2023-03-14T11:23:37;7.00;99.90
21487;DHT22;10905;50.822;4.336;2023-03-14T11:29:19;6.60;99.90
21487;DHT22;10905;50.822;4.336;2023-03-14T11:31:46;6.60;99.90
21487;DHT22;10905;50.822;4.336;2023-03-14T11:34:27;6.70;99.90
21487;DHT22;10905;50.822;4.336;2023-03-14T11:37:11;6.80;99.90
21487;DHT22;10905;50.822;4.336;2023-03-14T11:39:41;6.60;99.90
21487;DHT22;10905;50.822;4.336;2023-03-14T11:42:17;6.70;99.90
21487;DHT22;10905;50.822;4.336;2023-03-14T11:44:48;6.60;99.90
21487;DHT22;10905;50.822;4.336;2023-03-14T11:47:29;6.60;99.90
21487;DHT22;10905;50.822;4.336;2023-03-14T11:50:12;6.50;99.90
21487;DHT22;10905;50.822;4.336;2023-03-14T11:52:53;6.50;99.90
21487;DHT22;10905;50.822;4.336;2023-03-14T11:55:32;6.40;99.90
21487;DHT22;10905;50.822;4.336;2023-03-14T11:58:15;6.20;99.90
21487;DHT22;10905;50.822;4.336;2023-03-14T12:00:42;6.30;99.90
21487;DHT22;10905;50.822;4.336;2023-03-14T12:03:18;6.30;99.90
21487;DHT22;10905;50.822;4.336;2023-03-14T12:08:30;6.40;99.90
21487;DHT22;10905;50.822;4.336;2023-03-14T12:11:50;6.40;99.90
21487;DHT22;10905;50.822;4.336;2023-03-14T12:14:23;6.40;99.90
21487;DHT22;10905;50.822;4.336;2023-03-14T12:16:54;6.40;99.90
21487;DHT22;10905;50.822;4.336;2023-03-14T12:21:57;6.60;99.90
21487;DHT22;10905;50.822;4.336;2023-03-14T12:24:30;6.60;99.90
21487;DHT22;10905;50.822;4.336;2023-03-14T12:26:59;6.70;99.90
21487;DHT22;10905;50.822;4.336;2023-03-14T12:29:25;6.70;99.90
21487;DHT22;10905;50.822;4.336;2023-03-14T12:34:30;6.70;99.90
21487;DHT22;10905;50.822;4.336;2023-03-14T12:49:42;6.50;99.90
21487;DHT22;10905;50.822;4.336;2023-03-14T12:52:36;6.60;99.90
21487;DHT22;10905;50.822;4.336;2023-03-14T12:55:21;6.60;99.90
21487;DHT22;10905;50.822;4.336;2023-03-14T13:00:34;6.70;99.90
21487;DHT22;10905;50.822;4.336;2023-03-14T13:03:20;6.70;99.90
21487;DHT22;10905;50.822;4.336;2023-03-14T13:06:03;6.80;99.90
21487;DHT22;10905;50.822;4.336;2023-03-14T13:08:42;6.90;99.90
21487;DHT22;10905;50.822;4.336;2023-03-14T13:11:12;7.00;99.90
21487;DHT22;10905;50.822;4.336;2023-03-14T13:13:45;7.10;99.90
21487;DHT22;10905;50.822;4.336;2023-03-14T13:16:16;7.10;99.90
21487;DHT22;10905;50.822;4.336;2023-03-14T13:18:44;7.10;99.90
21487;DHT22;10905;50.822;4.336;2023-03-14T13:21:22;7.10;99.90
21487;DHT22;10905;50.822;4.336;2023-03-14T13:24:04;7.20;99.90
21487;DHT22;10905;50.822;4.336;2023-03-14T13:26:41;7.10;99.90
21487;DHT22;10905;50.822;4.336;2023-03-14T13:29:25;7.10;99.90
21487;DHT22;10905;50.822;4.336;2023-03-14T13:31:54;6.90;99.90
21487;DHT22;10905;50.822;4.336;2023-03-14T13:34:20;6.70;99.90
21487;DHT22;10905;50.822;4.336;2023-03-14T13:36:46;6.70;99.90
21487;DHT22;10905;50.822;4.336;2023-03-14T13:39:18;6.60;99.90
21487;DHT22;10905;50.822;4.336;2023-03-14T13:41:45;6.60;99.90
21487;DHT22;10905;50.822;4.336;2023-03-14T13:44:30;6.70;99.90
21487;DHT22;10905;50.822;4.336;2023-03-14T13:47:01;6.80;99.90
21487;DHT22;10905;50.822;4.336;2023-03-14T13:49:28;6.90;99.90
21487;DHT22;10905;50.822;4.336;2023-03-14T13:51:56;6.90;99.90
21487;DHT22;10905;50.822;4.336;2023-03-14T13:54:22;6.80;99.90
21487;DHT22;10905;50.822;4.336;2023-03-14T13:56:49;6.80;99.90
21487;DHT22;10905;50.822;4.336;2023-03-14T13:59:26;6.90;99.90
21487;DHT22;10905;50.822;4.336;2023-03-14T14:01:53;6.90;99.90
21487;DHT22;10905;50.822;4.336;2023-03-14T14:04:21;7.00;99.90
21487;DHT22;10905;50.822;4.336;2023-03-14T14:06:55;7.20;99.90
21487;DHT22;10905;50.822;4.336;2023-03-14T14:09:24;7.20;99.90
21487;DHT22;10905;50.822;4.336;2023-03-14T14:12:00;7.20;99.90
21487;DHT22;10905;50.822;4.336;2023-03-14T14:14:34;7.10;99.90
21487;DHT22;10905;50.822;4.336;2023-03-14T14:17:01;7.10;99.90
21487;DHT22;10905;50.822;4.336;2023-03-14T14:19:29;7.20;99.90
21487;DHT22;10905;50.822;4.336;2023-03-14T14:21:56;7.30;99.90
21487;DHT22;10905;50.822;4.336;2023-03-14T14:24:24;7.30;99.90
21487;DHT22;10905;50.822;4.336;2023-03-14T14:26:55;7.30;99.90
21487;DHT22;10905;50.822;4.336;2023-03-14T14:32:03;7.00;99.90
21487;DHT22;10905;50.822;4.336;2023-03-14T14:34:44;7.20;99.90
21487;DHT22;10905;50.822;4.336;2023-03-14T14:37:22;7.20;99.90
21487;DHT22;10905;50.822;4.336;2023-03-14T14:39:50;7.20;99.90
21487;DHT22;10905;50.822;4.336;2023-03-14T14:42:18;7.10;99.90
21487;DHT22;10905;50.822;4.336;2023-03-14T14:44:44;7.10;99.90
21487;DHT22;10905;50.822;4.336;2023-03-14T14:47:15;7.00;99.90
21487;DHT22;10905;50.822;4.336;2023-03-14T14:49:43;6.80;99.90
21487;DHT22;10905;50.822;4.336;2023-03-14T14:55:18;6.40;99.90
21487;DHT22;10905;50.822;4.336;2023-03-14T14:57:54;6.30;99.90
21487;DHT22;10905;50.822;4.336;2023-03-14T15:00:24;6.20;99.90
21487;DHT22;10905;50.822;4.336;2023-03-14T15:02:53;6.00;99.90
21487;DHT22;10905;50.822;4.336;2023-03-14T15:05:25;5.80;99.90
21487;DHT22;10905;50.822;4.336;2023-03-14T15:07:52;5.60;99.90
21487;DHT22;10905;50.822;4.336;2023-03-14T15:10:23;5.60;99.90
21487;DHT22;10905;50.822;4.336;2023-03-14T15:12:48;5.70;99.90
21487;DHT22;10905;50.822;4.336;2023-03-14T15:15:15;5.70;99.90
21487;DHT22;10905;50.822;4.336;2023-03-14T15:17:41;5.80;99.90
21487;DHT22;10905;50.822;4.336;2023-03-14T15:20:12;6.00;99.90
21487;DHT22;10905;50.822;4.336;2023-03-14T15:22:38;6.20;99.90
21487;DHT22;10905;50.822;4.336;2023-03-14T15:25:04;6.50;99.90
21487;DHT22;10905;50.822;4.336;2023-03-14T15:27:31;6.50;99.90
21487;DHT22;10905;50.822;4.336;2023-03-14T15:29:57;6.60;99.90
21487;DHT22;10905;50.822;4.336;2023-03-14T15:32:24;6.80;99.90
21487;DHT22;10905;50.822;4.336;2023-03-14T15:34:53;7.10;99.90
21487;DHT22;10905;50.822;4.336;2023-03-14T15:37:19;7.30;99.90
21487;DHT22;10905;50.822;4.336;2023-03-14T15:39:45;7.20;99.90
21487;DHT22;10905;50.822;4.336;2023-03-14T15:42:11;7.30;99.90
21487;DHT22;10905;50.822;4.336;2023-03-14T15:44:37;7.40;99.90
21487;DHT22;10905;50.822;4.336;2023-03-14T15:47:04;7.60;99.90
21487;DHT22;10905;50.822;4.336;2023-03-14T15:49:31;7.60;99.90
21487;DHT22;10905;50.822;4.336;2023-03-14T15:51:57;7.50;99.90
21487;DHT22;10905;50.822;4.336;2023-03-14T15:54:23;7.50;99.90
21487;DHT22;10905;50.822;4.336;2023-03-14T15:56:49;7.60;99.90
21487;DHT22;10905;50.822;4.336;2023-03-14T15:59:14;7.50;99.90
21487;DHT22;10905;50.822;4.336;2023-03-14T16:01:40;7.50;99.90
21487;DHT22;10905;50.822;4.336;2023-03-14T16:04:06;7.50;99.90
21487;DHT22;10905;50.822;4.336;2023-03-14T16:06:31;7.40;99.90
21487;DHT22;10905;50.822;4.336;2023-03-14T16:08:57;7.40;99.90
21487;DHT22;10905;50.822;4.336;2023-03-14T16:11:23;7.50;99.90
21487;DHT22;10905;50.822;4.336;2023-03-14T16:13:49;7.50;99.90
21487;DHT22;10905;50.822;4.336;2023-03-14T16:16:14;7.40;99.90
21487;DHT22;10905;50.822;4.336;2023-03-14T16:18:40;7.30;99.90
21487;DHT22;10905;50.822;4.336;2023-03-14T16:21:10;7.30;99.90
21487;DHT22;10905;50.822;4.336;2023-03-14T16:23:36;7.30;99.90
21487;DHT22;10905;50.822;4.336;2023-03-14T16:26:04;7.20;99.90
21487;DHT22;10905;50.822;4.336;2023-03-14T16:28:30;7.30;99.90
21487;DHT22;10905;50.822;4.336;2023-03-14T16:31:03;7.40;99.90
21487;DHT22;10905;50.822;4.336;2023-03-14T16:33:30;7.50;99.90
21487;DHT22;10905;50.822;4.336;2023-03-14T16:35:58;7.40;99.90
21487;DHT22;10905;50.822;4.336;2023-03-14T16:38:30;7.40;99.90
21487;DHT22;10905;50.822;4.336;2023-03-14T16:41:05;7.30;99.90
21487;DHT22;10905;50.822;4.336;2023-03-14T16:43:32;7.40;99.90
21487;DHT22;10905;50.822;4.336;2023-03-14T16:46:01;7.40;99.90
21487;DHT22;10905;50.822;4.336;2023-03-14T16:48:28;7.40;99.90
21487;DHT22;10905;50.822;4.336;2023-03-14T16:50:54;7.30;99.90
21487;DHT22;10905;50.822;4.336;2023-03-14T16:53:20;7.60;99.90
21487;DHT22;10905;50.822;4.336;2023-03-14T16:55:46;7.50;99.90
21487;DHT22;10905;50.822;4.336;2023-03-14T16:58:12;7.50;99.90